Time;durP1;ratioP1;P1;durP2;ratioP2;P2;SDS_P1;SDS_P2;PMS_P1;PMS_P2;Temp;Humidity;BMP_temperature;BMP_pressure;BME280_temperature;BME280_humidity;BME280_pressure;Samples;Min_cycle;Max_cycle;Signal;HPM_P1;HPM_P2
2021/04/29 00:01:18;;;;;;;7.03;5.47;;;13.70;99.90;;;;;;5053313;28;20225;-63
2021/04/29 00:03:45;;;;;;;6.20;4.93;;;13.60;99.90;;;;;;5053127;28;20205;-65
2021/04/29 00:06:12;;;;;;;6.57;5.50;;;13.50;99.90;;;;;;5053019;28;20209;-63
2021/04/29 00:08:39;;;;;;;5.93;5.33;;;13.40;99.90;;;;;;5052859;28;20596;-62
2021/04/29 00:11:08;;;;;;;7.67;5.57;;;13.30;99.90;;;;;;5053544;28;20197;-64
2021/04/29 00:13:34;;;;;;;7.50;5.73;;;13.30;99.90;;;;;;5052930;28;20217;-62
2021/04/29 00:16:00;;;;;;;7.77;5.77;;;13.30;99.90;;;;;;5052928;28;20205;-62
2021/04/29 00:18:26;;;;;;;7.37;5.87;;;13.30;99.90;;;;;;5052887;28;20218;-63
2021/04/29 00:20:55;;;;;;;8.73;6.73;;;13.40;99.90;;;;;;5052717;28;20237;-62
2021/04/29 00:23:22;;;;;;;6.67;5.80;;;13.40;99.90;;;;;;5053187;28;20206;-62
2021/04/29 00:25:48;;;;;;;9.53;7.13;;;13.40;99.90;;;;;;5053221;28;20205;-62
2021/04/29 00:28:14;;;;;;;8.90;6.57;;;13.40;99.90;;;;;;5052244;28;20221;-62
2021/04/29 00:30:41;;;;;;;6.47;5.87;;;13.40;99.90;;;;;;5053021;28;20209;-62
2021/04/29 00:33:07;;;;;;;6.77;6.03;;;13.50;99.90;;;;;;5052728;28;20201;-62
2021/04/29 00:35:33;;;;;;;6.23;5.63;;;13.50;99.90;;;;;;5052467;28;20616;-63
2021/04/29 00:38:00;;;;;;;7.73;6.00;;;13.60;99.90;;;;;;5052570;28;20267;-63
2021/04/29 00:40:26;;;;;;;7.57;5.73;;;13.70;99.90;;;;;;5052623;28;20236;-63
2021/04/29 00:42:52;;;;;;;7.23;6.00;;;13.70;99.90;;;;;;5052860;28;20263;-62
2021/04/29 00:45:19;;;;;;;7.23;5.83;;;13.80;99.90;;;;;;5052523;28;20205;-62
2021/04/29 00:47:50;;;;;;;7.10;5.93;;;13.80;99.90;;;;;;5052238;28;20222;-63
2021/04/29 00:50:17;;;;;;;9.17;6.20;;;13.90;99.90;;;;;;5052553;28;20201;-64
2021/04/29 00:52:43;;;;;;;11.00;6.07;;;14.00;99.90;;;;;;5052509;28;20214;-63
2021/04/29 00:55:11;;;;;;;6.10;5.50;;;14.10;99.90;;;;;;5052429;28;20677;-63
2021/04/29 00:57:38;;;;;;;7.53;5.80;;;14.20;99.90;;;;;;5052569;28;20232;-63
2021/04/29 01:00:06;;;;;;;9.17;6.10;;;14.30;99.90;;;;;;5052362;28;20602;-63
2021/04/29 01:02:35;;;;;;;9.83;6.23;;;14.40;99.90;;;;;;5052498;28;20210;-63
2021/04/29 01:05:05;;;;;;;9.60;6.10;;;14.50;99.90;;;;;;5052307;28;20209;-63
2021/04/29 01:07:36;;;;;;;8.30;6.10;;;14.40;99.90;;;;;;5052354;28;20226;-63
2021/04/29 01:10:10;;;;;;;8.07;6.07;;;14.50;99.90;;;;;;5052073;28;20202;-63
2021/04/29 01:12:42;;;;;;;7.10;5.23;;;14.60;99.90;;;;;;5052064;28;20210;-63
2021/04/29 01:15:11;;;;;;;6.27;5.47;;;14.70;99.90;;;;;;5051847;28;20209;-63
2021/04/29 01:17:44;;;;;;;6.07;5.30;;;14.60;99.90;;;;;;5052107;28;20268;-63
2021/04/29 01:20:15;;;;;;;6.10;4.77;;;14.70;99.90;;;;;;5051951;28;20229;-63
2021/04/29 01:22:47;;;;;;;5.93;5.20;;;14.50;99.90;;;;;;5051728;28;20221;-63
2021/04/29 01:25:16;;;;;;;5.10;4.60;;;14.60;99.90;;;;;;5051631;28;20228;-63
2021/04/29 01:27:44;;;;;;;5.80;4.17;;;14.60;99.90;;;;;;5051618;28;20457;-62
2021/04/29 01:30:13;;;;;;;5.30;4.80;;;14.60;99.90;;;;;;5052046;28;20206;-62
2021/04/29 01:32:40;;;;;;;8.93;5.70;;;14.80;99.90;;;;;;5052322;28;20419;-62
2021/04/29 01:35:09;;;;;;;7.00;5.20;;;14.90;99.90;;;;;;5051927;28;20209;-62
2021/04/29 01:37:36;;;;;;;5.60;4.90;;;14.90;99.90;;;;;;5052066;28;20229;-62
2021/04/29 01:40:04;;;;;;;5.60;4.77;;;15.00;99.90;;;;;;5051640;28;20251;-63
2021/04/29 01:42:35;;;;;;;6.03;4.47;;;15.00;99.90;;;;;;5051936;28;20673;-63
2021/04/29 01:45:04;;;;;;;6.57;4.97;;;15.00;99.90;;;;;;5051757;28;20216;-63
2021/04/29 01:47:33;;;;;;;5.03;4.53;;;15.00;99.90;;;;;;5051697;28;20225;-63
2021/04/29 01:50:00;;;;;;;6.50;4.47;;;15.00;99.90;;;;;;5051183;28;20205;-63
2021/04/29 01:52:26;;;;;;;6.00;4.93;;;15.00;99.90;;;;;;5051202;28;20209;-63
2021/04/29 01:54:53;;;;;;;6.33;4.70;;;14.90;99.90;;;;;;5051323;28;20213;-63
2021/04/29 01:57:20;;;;;;;7.30;5.40;;;15.00;99.90;;;;;;5051687;28;20233;-63
2021/04/29 01:59:47;;;;;;;5.23;4.63;;;15.20;99.90;;;;;;5050946;28;20213;-63
2021/04/29 02:02:14;;;;;;;6.53;5.10;;;15.20;99.90;;;;;;5051269;28;20232;-63
2021/04/29 02:04:40;;;;;;;9.83;5.93;;;15.20;99.90;;;;;;5051172;28;20228;-63
2021/04/29 02:07:06;;;;;;;7.37;5.30;;;15.20;99.90;;;;;;5050857;28;20233;-63
2021/04/29 02:09:33;;;;;;;6.17;4.47;;;15.20;99.90;;;;;;5051407;28;20209;-63
2021/04/29 02:12:01;;;;;;;7.57;5.30;;;15.20;99.90;;;;;;5051366;28;20262;-63
2021/04/29 02:14:32;;;;;;;5.33;4.83;;;15.20;99.90;;;;;;5051651;28;20225;-64
2021/04/29 02:17:04;;;;;;;6.10;4.97;;;15.20;99.90;;;;;;5051026;28;20248;-63
2021/04/29 02:19:32;;;;;;;6.30;5.10;;;15.20;99.90;;;;;;5050896;28;20263;-63
2021/04/29 02:21:59;;;;;;;6.27;5.23;;;15.20;99.90;;;;;;5051077;28;20240;-63
2021/04/29 02:24:27;;;;;;;7.87;5.60;;;15.20;99.90;;;;;;5050978;28;20216;-63
2021/04/29 02:26:54;;;;;;;6.50;5.43;;;15.30;99.90;;;;;;5050957;28;20229;-63
2021/04/29 02:29:20;;;;;;;5.23;4.73;;;15.20;99.90;;;;;;5050998;28;20263;-63
2021/04/29 02:31:46;;;;;;;7.33;5.27;;;15.30;99.90;;;;;;5051284;28;20201;-63
2021/04/29 02:34:13;;;;;;;6.10;5.20;;;15.30;99.90;;;;;;5051184;28;20270;-63
2021/04/29 02:36:40;;;;;;;9.13;6.27;;;15.30;99.90;;;;;;5050886;28;20736;-63
2021/04/29 02:39:08;;;;;;;8.23;5.73;;;15.30;99.90;;;;;;5050797;28;20206;-63
2021/04/29 02:41:34;;;;;;;5.77;5.10;;;15.30;99.90;;;;;;5050775;28;20225;-63
2021/04/29 02:44:01;;;;;;;6.67;5.30;;;15.30;99.90;;;;;;5050578;28;20207;-63
2021/04/29 02:46:28;;;;;;;4.40;3.87;;;15.30;99.90;;;;;;5050838;28;20709;-63
2021/04/29 02:48:55;;;;;;;3.97;3.57;;;15.30;99.90;;;;;;5050534;28;20213;-63
2021/04/29 02:51:22;;;;;;;5.20;3.33;;;15.20;99.90;;;;;;5051330;28;20209;-62
2021/04/29 02:53:49;;;;;;;3.47;3.10;;;15.20;99.90;;;;;;5054802;28;20202;-62
2021/04/29 02:56:16;;;;;;;3.03;2.73;;;15.20;99.90;;;;;;5054669;28;20205;-62
2021/04/29 02:58:44;;;;;;;3.13;2.70;;;15.20;99.90;;;;;;5054829;28;20202;-62
2021/04/29 03:01:11;;;;;;;7.93;5.77;;;15.20;99.90;;;;;;5054755;28;20232;-62
2021/04/29 03:03:38;;;;;;;9.57;6.50;;;15.20;99.90;;;;;;5054664;28;20209;-64
2021/04/29 03:06:05;;;;;;;11.83;7.67;;;15.30;99.90;;;;;;5054552;28;20529;-63
2021/04/29 03:08:32;;;;;;;6.53;5.73;;;15.20;99.90;;;;;;5054398;28;20221;-64
2021/04/29 03:10:59;;;;;;;6.80;5.70;;;15.10;99.90;;;;;;5054787;28;20665;-64
2021/04/29 03:13:25;;;;;;;7.47;5.10;;;15.00;99.90;;;;;;5054254;28;20255;-63
2021/04/29 03:15:51;;;;;;;5.50;4.77;;;14.70;99.90;;;;;;5053923;28;20673;-63
2021/04/29 03:18:18;;;;;;;5.23;4.70;;;14.70;99.90;;;;;;5114694;22;20270;-61
2021/04/29 03:20:44;;;;;;;6.33;5.00;;;14.60;99.90;;;;;;5115429;28;20230;-62
2021/04/29 03:23:10;;;;;;;7.80;5.77;;;14.60;99.90;;;;;;5115474;28;20261;-62
2021/04/29 03:25:36;;;;;;;5.60;5.10;;;14.60;99.90;;;;;;5115548;28;20199;-61
2021/04/29 03:28:04;;;;;;;5.67;4.90;;;14.50;99.90;;;;;;5099711;28;20235;-61
2021/04/29 03:30:31;;;;;;;6.10;5.50;;;14.40;99.90;;;;;;5095348;28;20204;-61
2021/04/29 03:32:57;;;;;;;5.80;4.57;;;14.40;99.90;;;;;;5094860;28;20204;-61
2021/04/29 03:35:23;;;;;;;5.20;4.40;;;14.20;99.90;;;;;;5094755;28;20799;-61
2021/04/29 03:37:49;;;;;;;5.37;4.47;;;14.20;99.90;;;;;;5094852;28;20597;-65
2021/04/29 03:40:15;;;;;;;4.33;3.83;;;14.10;99.90;;;;;;5094634;28;20271;-65
2021/04/29 03:42:42;;;;;;;4.10;3.70;;;14.10;99.90;;;;;;5094694;28;20209;-64
2021/04/29 03:45:10;;;;;;;4.67;4.03;;;14.10;99.90;;;;;;5094208;28;20204;-62
2021/04/29 03:47:37;;;;;;;4.13;3.73;;;14.10;99.90;;;;;;5094057;28;20224;-62
2021/04/29 03:50:04;;;;;;;6.20;3.73;;;14.10;99.90;;;;;;5094520;28;20209;-61
2021/04/29 03:52:30;;;;;;;4.30;3.90;;;14.10;99.90;;;;;;5095468;28;20204;-64
2021/04/29 03:54:56;;;;;;;5.17;3.33;;;14.00;99.90;;;;;;5095218;28;20205;-63
2021/04/29 03:57:22;;;;;;;4.27;3.30;;;13.90;99.90;;;;;;5095287;28;20655;-64
2021/04/29 03:59:48;;;;;;;3.87;3.50;;;13.80;99.90;;;;;;5095229;28;20204;-64
2021/04/29 04:02:16;;;;;;;4.30;3.70;;;13.80;99.90;;;;;;5094864;28;20215;-63
2021/04/29 04:04:42;;;;;;;3.40;3.10;;;13.70;99.90;;;;;;5094698;28;20206;-64
2021/04/29 04:07:08;;;;;;;2.80;2.50;;;13.60;99.90;;;;;;5094314;28;20574;-62
2021/04/29 04:09:34;;;;;;;2.80;2.50;;;13.60;99.90;;;;;;5094915;28;20200;-62
2021/04/29 04:12:01;;;;;;;3.90;2.83;;;13.50;99.90;;;;;;5094507;28;20202;-62
2021/04/29 04:14:27;;;;;;;3.10;2.60;;;13.50;99.90;;;;;;5094770;28;20574;-62
2021/04/29 04:16:53;;;;;;;5.83;2.80;;;13.50;99.90;;;;;;5094617;28;20236;-64
2021/04/29 04:19:20;;;;;;;2.90;2.60;;;13.40;99.90;;;;;;5094244;28;20208;-64
2021/04/29 04:21:46;;;;;;;2.80;2.43;;;13.50;99.90;;;;;;5094206;28;20242;-62
2021/04/29 04:24:12;;;;;;;3.37;2.70;;;13.50;99.90;;;;;;5094185;28;20208;-61
2021/04/29 04:26:39;;;;;;;2.53;2.33;;;13.40;99.90;;;;;;5093900;28;20258;-62
2021/04/29 04:29:05;;;;;;;2.50;2.20;;;13.40;99.90;;;;;;5094249;28;20201;-61
2021/04/29 04:31:31;;;;;;;3.23;2.23;;;13.40;99.90;;;;;;5094240;28;20211;-64
2021/04/29 04:33:57;;;;;;;3.00;2.60;;;13.40;99.90;;;;;;5093689;28;20217;-61
2021/04/29 04:36:24;;;;;;;3.43;2.43;;;13.40;99.90;;;;;;5093717;28;20200;-61
2021/04/29 04:38:51;;;;;;;5.80;3.50;;;13.40;99.90;;;;;;5093653;28;20218;-62
2021/04/29 04:41:17;;;;;;;3.03;2.60;;;13.40;99.90;;;;;;5093670;28;20220;-62
2021/04/29 04:43:43;;;;;;;3.87;2.80;;;13.30;99.90;;;;;;5093958;28;20212;-61
2021/04/29 04:46:09;;;;;;;6.33;5.17;;;13.30;99.90;;;;;;5094230;28;20208;-62
2021/04/29 04:48:36;;;;;;;3.33;2.43;;;13.20;99.90;;;;;;5094159;28;20227;-62
2021/04/29 04:51:02;;;;;;;2.83;2.50;;;13.30;99.90;;;;;;5093978;28;20200;-62
2021/04/29 04:53:29;;;;;;;4.50;3.70;;;13.30;99.90;;;;;;5093392;28;20208;-62
2021/04/29 04:55:55;;;;;;;2.50;2.30;;;13.30;99.90;;;;;;5093530;28;20269;-63
2021/04/29 04:58:22;;;;;;;4.40;3.57;;;13.40;99.90;;;;;;5093743;28;20275;-62
2021/04/29 05:00:49;;;;;;;3.80;2.87;;;13.40;99.90;;;;;;5093341;28;20224;-62
2021/04/29 05:03:16;;;;;;;3.70;3.07;;;13.40;99.90;;;;;;5093227;28;20265;-63
2021/04/29 05:05:42;;;;;;;3.40;2.27;;;13.50;99.90;;;;;;5093329;28;20219;-62
2021/04/29 05:08:08;;;;;;;2.60;2.40;;;13.70;99.90;;;;;;5093277;28;20224;-62
2021/04/29 05:10:36;;;;;;;5.53;4.10;;;13.80;99.90;;;;;;5093392;28;20205;-62
2021/04/29 05:13:03;;;;;;;4.30;2.70;;;13.90;99.90;;;;;;5093252;28;20212;-62
2021/04/29 05:15:30;;;;;;;3.90;3.50;;;14.00;99.90;;;;;;5092337;28;20702;-64
2021/04/29 05:17:56;;;;;;;3.00;2.70;;;14.10;99.90;;;;;;5092704;28;20235;-63
2021/04/29 05:20:23;;;;;;;3.70;3.30;;;14.30;99.90;;;;;;5093515;28;20224;-63
2021/04/29 05:22:50;;;;;;;3.10;2.20;;;14.40;99.90;;;;;;5092843;28;20212;-63
2021/04/29 05:25:16;;;;;;;5.40;2.90;;;14.60;99.90;;;;;;5093071;28;20493;-64
2021/04/29 05:27:43;;;;;;;4.70;2.47;;;14.80;99.90;;;;;;5092743;28;20224;-63
2021/04/29 05:30:10;;;;;;;2.73;1.80;;;14.90;99.90;;;;;;5093247;28;20215;-63
2021/04/29 05:32:36;;;;;;;6.37;1.90;;;15.10;99.90;;;;;;5093166;28;20470;-63
2021/04/29 05:35:04;;;;;;;4.07;2.20;;;15.50;99.90;;;;;;5092859;28;20212;-64
2021/04/29 05:37:30;;;;;;;4.20;1.73;;;16.20;99.90;;;;;;5092907;28;20220;-64
2021/04/29 05:39:57;;;;;;;4.20;2.87;;;16.60;99.90;;;;;;5092827;28;20573;-63
2021/04/29 05:42:23;;;;;;;5.87;2.37;;;16.70;99.90;;;;;;5092820;28;20239;-64
2021/04/29 05:44:50;;;;;;;2.17;1.97;;;16.70;99.90;;;;;;5093040;28;20204;-66
2021/04/29 05:47:16;;;;;;;4.07;2.20;;;16.70;99.90;;;;;;5092895;28;20634;-63
2021/04/29 05:49:42;;;;;;;2.37;1.73;;;16.60;99.90;;;;;;5092492;28;20212;-64
2021/04/29 05:52:09;;;;;;;4.77;2.23;;;16.50;99.90;;;;;;5092848;28;20196;-63
2021/04/29 05:54:35;;;;;;;2.60;2.03;;;16.40;99.90;;;;;;5092957;28;20694;-62
2021/04/29 05:57:02;;;;;;;2.60;1.97;;;16.50;99.90;;;;;;5093164;28;20314;-62
2021/04/29 05:59:29;;;;;;;2.80;1.53;;;16.50;99.90;;;;;;5092778;28;20200;-66
2021/04/29 06:01:56;;;;;;;3.80;2.27;;;16.40;99.90;;;;;;5093498;28;20224;-63
2021/04/29 06:04:22;;;;;;;2.87;2.20;;;16.50;99.90;;;;;;5094035;28;20204;-64
2021/04/29 06:06:48;;;;;;;3.03;2.20;;;16.40;99.90;;;;;;5094375;28;20224;-63
2021/04/29 06:09:15;;;;;;;4.10;3.13;;;16.40;99.90;;;;;;5094475;28;20207;-64
2021/04/29 06:11:41;;;;;;;4.27;1.77;;;16.40;99.90;;;;;;5094041;28;20664;-63
2021/04/29 06:14:07;;;;;;;2.30;1.73;;;16.40;99.90;;;;;;5093069;28;20211;-63
2021/04/29 06:16:33;;;;;;;1.90;1.43;;;16.40;99.90;;;;;;5092664;28;20204;-63
2021/04/29 06:19:00;;;;;;;2.07;1.50;;;16.50;99.90;;;;;;5092935;28;20215;-62
2021/04/29 06:21:27;;;;;;;2.70;1.80;;;16.60;99.90;;;;;;5092952;28;20224;-63
2021/04/29 06:23:53;;;;;;;3.63;1.67;;;16.80;99.90;;;;;;5092918;28;20208;-63
2021/04/29 06:26:19;;;;;;;2.20;1.70;;;16.80;99.90;;;;;;5094473;28;20200;-63
2021/04/29 06:28:45;;;;;;;3.60;1.67;;;16.90;99.90;;;;;;5100214;28;20253;-65
2021/04/29 06:31:11;;;;;;;1.90;1.70;;;16.90;99.90;;;;;;5099854;28;20586;-63
2021/04/29 06:33:38;;;;;;;3.03;1.70;;;17.10;99.90;;;;;;5099264;28;20208;-64
2021/04/29 06:36:05;;;;;;;1.97;1.70;;;17.20;99.90;;;;;;5099699;28;20261;-64
2021/04/29 06:38:34;;;;;;;2.40;1.60;;;17.50;99.90;;;;;;5099316;28;20223;-65
2021/04/29 06:41:00;;;;;;;2.47;1.43;;;18.20;99.90;;;;;;5098941;28;20301;-65
2021/04/29 06:43:27;;;;;;;3.13;1.87;;;19.30;98.20;;;;;;5099070;28;20204;-66
2021/04/29 06:45:53;;;;;;;5.00;2.10;;;20.20;95.80;;;;;;5098217;28;20203;-63
2021/04/29 06:48:19;;;;;;;2.08;1.88;;;21.10;92.40;;;;;;5098079;28;20281;-64
2021/04/29 06:50:46;;;;;;;2.60;1.73;;;21.60;91.70;;;;;;5098677;28;20200;-64
2021/04/29 06:53:13;;;;;;;6.28;3.67;;;21.70;90.30;;;;;;5099148;28;20219;-64
2021/04/29 06:55:39;;;;;;;3.42;1.80;;;21.50;89.10;;;;;;5099008;28;20204;-64
2021/04/29 06:58:05;;;;;;;4.47;2.20;;;21.90;87.10;;;;;;5098940;28;20228;-64
2021/04/29 07:00:32;;;;;;;2.50;2.20;;;22.90;83.60;;;;;;5098981;28;20223;-64
2021/04/29 07:02:59;;;;;;;3.47;2.00;;;23.80;80.90;;;;;;5089583;28;20208;-67
2021/04/29 07:05:26;;;;;;;4.07;2.72;;;24.20;76.60;;;;;;5079158;28;20209;-68
2021/04/29 07:07:52;;;;;;;4.15;2.47;;;25.00;75.50;;;;;;5079359;28;20216;-68
2021/04/29 07:10:21;;;;;;;3.03;2.20;;;26.30;70.50;;;;;;5079084;28;20581;-68
2021/04/29 07:12:47;;;;;;;2.80;2.17;;;27.70;64.30;;;;;;5078049;28;20213;-64
2021/04/29 07:15:15;;;;;;;4.38;2.40;;;29.10;56.30;;;;;;5077437;28;20213;-63
2021/04/29 07:17:42;;;;;;;4.07;2.10;;;30.00;54.10;;;;;;5077550;28;20272;-66
2021/04/29 07:20:09;;;;;;;2.95;2.20;;;31.10;52.10;;;;;;5077653;28;20208;-65
2021/04/29 07:22:36;;;;;;;4.53;2.42;;;32.20;49.10;;;;;;5077834;28;20664;-65
2021/04/29 07:25:02;;;;;;;5.43;2.10;;;33.10;46.00;;;;;;5077776;28;20205;-65
2021/04/29 07:27:29;;;;;;;3.33;2.60;;;33.60;45.00;;;;;;5077402;28;20571;-66
2021/04/29 07:29:55;;;;;;;7.22;3.28;;;33.10;44.00;;;;;;5076973;28;20555;-65
2021/04/29 07:32:22;;;;;;;3.95;2.97;;;32.10;45.30;;;;;;5077492;28;20808;-66
2021/04/29 07:34:48;;;;;;;6.97;3.00;;;30.70;46.80;;;;;;5077198;28;20278;-65
2021/04/29 07:37:14;;;;;;;5.13;2.78;;;29.30;48.30;;;;;;5077497;28;20232;-66
2021/04/29 07:39:40;;;;;;;5.22;3.00;;;28.00;50.60;;;;;;5073439;28;20205;-65
2021/04/29 07:42:07;;;;;;;6.15;3.50;;;26.80;53.00;;;;;;5074083;28;20704;-66
2021/04/29 07:44:34;;;;;;;5.75;3.70;;;25.80;54.70;;;;;;5073714;28;20634;-66
2021/04/29 07:47:00;;;;;;;6.43;3.58;;;25.20;56.60;;;;;;5074128;28;20232;-64
2021/04/29 07:49:26;;;;;;;4.90;3.45;;;24.50;58.00;;;;;;5074418;28;20205;-65
2021/04/29 07:51:54;;;;;;;5.13;3.60;;;23.90;58.90;;;;;;5074428;28;20205;-65
2021/04/29 07:54:20;;;;;;;6.60;3.40;;;23.70;59.40;;;;;;5073711;28;20205;-64
2021/04/29 07:56:46;;;;;;;4.00;3.60;;;23.50;59.50;;;;;;5073519;28;20228;-64
2021/04/29 07:59:13;;;;;;;17.02;12.15;;;23.10;59.40;;;;;;5073422;28;20205;-65
2021/04/29 08:01:40;;;;;;;5.47;3.90;;;22.70;60.20;;;;;;5073162;28;20290;-62
2021/04/29 08:04:06;;;;;;;4.78;3.70;;;22.20;61.10;;;;;;5073852;28;20209;-62
2021/04/29 08:06:32;;;;;;;6.30;4.38;;;21.80;60.90;;;;;;5073867;28;20213;-62
2021/04/29 08:08:59;;;;;;;4.50;3.92;;;21.50;61.90;;;;;;5073245;28;20295;-60
2021/04/29 08:11:25;;;;;;;5.65;4.20;;;21.90;61.40;;;;;;5073684;28;20266;-64
2021/04/29 08:13:54;;;;;;;6.32;3.80;;;22.20;60.70;;;;;;5073796;28;20209;-65
2021/04/29 08:16:20;;;;;;;4.60;3.85;;;22.60;59.60;;;;;;5073727;28;20201;-65
2021/04/29 08:18:49;;;;;;;5.82;4.15;;;23.20;59.40;;;;;;5073940;28;20658;-65
2021/04/29 08:21:15;;;;;;;8.40;5.35;;;23.90;59.20;;;;;;5073707;28;20319;-65
2021/04/29 08:23:41;;;;;;;5.45;3.97;;;24.10;57.10;;;;;;5073687;28;20263;-65
2021/04/29 08:26:07;;;;;;;6.55;4.70;;;24.00;56.80;;;;;;5073844;28;20271;-65
2021/04/29 08:28:34;;;;;;;5.73;4.40;;;24.30;56.70;;;;;;5068839;28;20951;-60
2021/04/29 08:31:00;;;;;;;8.30;4.72;;;24.00;56.80;;;;;;5072955;28;20447;-62
2021/04/29 08:33:26;;;;;;;6.15;4.47;;;23.40;57.70;;;;;;5072813;28;20208;-61
2021/04/29 08:35:53;;;;;;;5.57;4.35;;;23.00;58.90;;;;;;5072780;28;20211;-61
2021/04/29 08:38:19;;;;;;;5.70;3.45;;;22.80;60.30;;;;;;5072760;28;20462;-61
2021/04/29 08:40:45;;;;;;;7.85;4.40;;;22.70;60.70;;;;;;5072357;28;20224;-61
2021/04/29 08:43:12;;;;;;;7.30;4.35;;;22.40;60.40;;;;;;5072728;28;20213;-61
2021/04/29 08:45:44;;;;;;;4.57;4.13;;;21.70;62.10;;;;;;5072253;28;20243;-61
2021/04/29 08:48:11;;;;;;;5.85;4.43;;;21.40;63.60;;;;;;5072898;28;20257;-61
2021/04/29 08:50:37;;;;;;;8.93;4.70;;;21.20;63.50;;;;;;5072953;28;20208;-58
2021/04/29 08:53:04;;;;;;;8.75;5.63;;;21.00;64.50;;;;;;5073366;28;20205;-62
2021/04/29 08:55:30;;;;;;;5.45;4.35;;;21.00;63.80;;;;;;5072421;28;20205;-62
2021/04/29 08:57:57;;;;;;;5.95;4.65;;;20.90;63.90;;;;;;5072658;28;20356;-62
2021/04/29 09:00:24;;;;;;;6.82;4.70;;;21.00;63.90;;;;;;5072201;28;20209;-62
2021/04/29 09:02:54;;;;;;;9.48;5.13;;;21.30;64.80;;;;;;5072608;28;20560;-62
2021/04/29 09:05:22;;;;;;;6.55;4.80;;;21.50;63.70;;;;;;5072066;28;20660;-63
2021/04/29 09:07:56;;;;;;;7.57;5.10;;;21.90;62.20;;;;;;5071942;28;20229;-62
2021/04/29 09:10:26;;;;;;;8.98;5.50;;;22.10;60.80;;;;;;5072445;28;20261;-62
2021/04/29 09:12:53;;;;;;;8.73;5.30;;;22.30;59.90;;;;;;5072788;28;20219;-62
2021/04/29 09:15:28;;;;;;;6.82;4.80;;;22.50;60.00;;;;;;5072221;28;20205;-62
2021/04/29 09:18:08;;;;;;;7.60;4.88;;;22.50;59.70;;;;;;5072453;28;20315;-61
2021/04/29 09:20:35;;;;;;;7.93;5.47;;;22.50;60.10;;;;;;5071611;28;20258;-61
2021/04/29 09:23:05;;;;;;;7.47;4.88;;;22.30;60.00;;;;;;5072014;28;20464;-61
2021/04/29 09:25:33;;;;;;;8.05;6.20;;;22.10;61.40;;;;;;5071826;28;20299;-61
2021/04/29 09:28:00;;;;;;;5.88;5.05;;;21.70;61.60;;;;;;5071889;28;20228;-61
2021/04/29 09:30:27;;;;;;;6.32;5.30;;;21.30;61.90;;;;;;5071794;28;20205;-61
2021/04/29 09:32:58;;;;;;;5.57;4.90;;;20.90;62.60;;;;;;5071661;28;20212;-61
2021/04/29 09:35:25;;;;;;;6.07;5.00;;;20.70;62.80;;;;;;5071541;28;20243;-61
2021/04/29 09:37:51;;;;;;;9.38;5.60;;;20.50;64.00;;;;;;5071652;28;20254;-61
2021/04/29 09:40:23;;;;;;;7.57;5.40;;;20.30;65.10;;;;;;5071869;28;20586;-60
2021/04/29 09:42:50;;;;;;;8.43;4.95;;;20.30;65.10;;;;;;5072028;28;20217;-60
2021/04/29 09:45:19;;;;;;;9.13;5.05;;;20.30;67.60;;;;;;5071632;28;20621;-60
2021/04/29 09:48:11;;;;;;;9.10;5.10;;;20.10;70.60;;;;;;5072177;28;20727;-60
2021/04/29 09:50:39;;;;;;;8.88;5.07;;;19.60;74.00;;;;;;5057724;28;20227;-60
2021/04/29 09:53:07;;;;;;;8.93;5.75;;;19.20;77.80;;;;;;5071380;28;20204;-59
2021/04/29 09:55:35;;;;;;;8.23;6.30;;;18.70;83.80;;;;;;5071086;28;20790;-60
2021/04/29 09:58:11;;;;;;;8.13;6.30;;;18.40;90.00;;;;;;5071204;28;20363;-61
2021/04/29 10:00:38;;;;;;;11.85;6.13;;;18.20;91.10;;;;;;5071342;28;20622;-61
2021/04/29 10:03:04;;;;;;;7.60;5.73;;;18.00;92.20;;;;;;5070871;28;20220;-60
2021/04/29 10:05:35;;;;;;;9.77;6.20;;;18.00;92.40;;;;;;5071333;28;20238;-61
2021/04/29 10:08:02;;;;;;;7.30;5.37;;;17.90;93.50;;;;;;5071509;28;20232;-60
2021/04/29 10:10:32;;;;;;;7.83;5.67;;;18.00;93.00;;;;;;5071994;28;20209;-61
2021/04/29 10:13:00;;;;;;;7.50;4.80;;;18.10;93.70;;;;;;5071186;28;20212;-59
2021/04/29 10:15:28;;;;;;;7.90;5.33;;;18.30;93.40;;;;;;5070885;28;20212;-60
2021/04/29 10:17:55;;;;;;;6.90;5.10;;;18.20;93.50;;;;;;5071307;28;20238;-60
2021/04/29 10:20:21;;;;;;;6.97;4.77;;;18.30;93.50;;;;;;5071055;28;20213;-60
2021/04/29 10:22:48;;;;;;;7.80;5.30;;;18.10;93.70;;;;;;5070820;28;20225;-60
2021/04/29 10:25:14;;;;;;;10.27;5.43;;;18.20;93.90;;;;;;5071039;28;20209;-60
2021/04/29 10:27:44;;;;;;;10.90;6.10;;;18.40;93.60;;;;;;5071036;28;20221;-60
2021/04/29 10:30:13;;;;;;;8.47;6.30;;;18.60;92.30;;;;;;5070947;28;20577;-60
2021/04/29 10:32:40;;;;;;;6.75;5.18;;;19.00;91.60;;;;;;5071170;28;20261;-60
2021/04/29 10:35:18;;;;;;;10.33;4.60;;;19.50;92.20;;;;;;5071063;28;20287;-60
2021/04/29 10:37:54;;;;;;;5.68;4.63;;;20.10;90.80;;;;;;5071033;28;20278;-60
2021/04/29 10:40:31;;;;;;;5.20;4.63;;;20.80;90.10;;;;;;5071347;28;20695;-60
2021/04/29 10:42:57;;;;;;;6.15;5.55;;;21.30;88.50;;;;;;5071522;28;20234;-60
2021/04/29 10:45:24;;;;;;;5.47;4.60;;;21.80;87.50;;;;;;5070971;28;20208;-60
2021/04/29 10:47:51;;;;;;;5.57;5.05;;;22.40;82.20;;;;;;5087843;28;20228;-61
2021/04/29 10:50:18;;;;;;;6.00;4.85;;;22.80;78.70;;;;;;5091183;28;20238;-61
2021/04/29 10:52:49;;;;;;;6.63;4.45;;;23.00;78.50;;;;;;5091698;28;20200;-62
2021/04/29 10:55:23;;;;;;;6.10;4.88;;;23.30;79.30;;;;;;5091525;28;20204;-62
2021/04/29 10:57:49;;;;;;;5.63;5.00;;;23.50;76.40;;;;;;5090709;28;20597;-62
2021/04/29 11:00:16;;;;;;;5.63;4.32;;;23.70;73.80;;;;;;5091017;28;20204;-62
2021/04/29 11:02:43;;;;;;;7.28;5.53;;;23.70;73.20;;;;;;5091242;28;20224;-63
2021/04/29 11:05:23;;;;;;;7.70;5.55;;;23.50;73.60;;;;;;5091099;28;20266;-59
2021/04/29 11:07:50;;;;;;;6.30;4.97;;;23.40;73.60;;;;;;5090942;28;20583;-62
2021/04/29 11:10:17;;;;;;;6.07;4.18;;;23.20;73.20;;;;;;5091146;28;20205;-61
2021/04/29 11:12:46;;;;;;;7.82;3.88;;;23.00;74.40;;;;;;5091013;28;20406;-62
2021/04/29 11:15:27;;;;;;;4.07;3.50;;;22.60;72.80;;;;;;5093984;28;20215;-63
2021/04/29 11:18:04;;;;;;;4.00;3.03;;;22.00;70.00;;;;;;5094413;28;20638;-63
2021/04/29 11:20:46;;;;;;;3.30;2.92;;;21.40;68.60;;;;;;5094498;28;20729;-63
2021/04/29 11:23:14;;;;;;;5.53;3.10;;;20.80;68.70;;;;;;5094538;28;20211;-63
2021/04/29 11:25:40;;;;;;;4.40;3.03;;;20.40;68.90;;;;;;5094440;28;20204;-62
2021/04/29 11:28:07;;;;;;;6.57;3.70;;;20.00;71.40;;;;;;5094333;28;20274;-61
2021/04/29 11:30:33;;;;;;;4.10;3.07;;;19.80;71.20;;;;;;5094620;28;20791;-61
2021/04/29 11:33:01;;;;;;;4.97;3.20;;;19.60;70.70;;;;;;5094415;28;20211;-61
2021/04/29 11:35:29;;;;;;;4.13;2.67;;;19.30;73.20;;;;;;5093932;28;20314;-61
2021/04/29 11:37:57;;;;;;;3.75;2.88;;;19.10;73.50;;;;;;5093726;28;20225;-61
2021/04/29 11:40:25;;;;;;;5.50;3.20;;;18.70;73.30;;;;;;5094137;28;20205;-61
2021/04/29 11:42:55;;;;;;;5.60;3.10;;;18.70;73.90;;;;;;5094021;28;20231;-61
2021/04/29 11:45:23;;;;;;;3.23;2.93;;;18.60;71.80;;;;;;5094060;28;20216;-62
2021/04/29 11:47:59;;;;;;;3.88;3.08;;;18.60;72.10;;;;;;5093773;28;20707;-62
2021/04/29 11:50:27;;;;;;;4.10;3.03;;;18.40;71.80;;;;;;5093758;28;20208;-61
2021/04/29 11:53:09;;;;;;;4.50;3.37;;;18.30;72.90;;;;;;5093775;28;20200;-61
2021/04/29 11:55:37;;;;;;;5.93;3.50;;;18.40;74.10;;;;;;5093904;28;20215;-61
2021/04/29 11:58:06;;;;;;;5.10;3.40;;;18.60;72.90;;;;;;5093654;28;20775;-62
2021/04/29 12:00:35;;;;;;;4.87;3.40;;;18.80;72.10;;;;;;5093724;28;20204;-61
2021/04/29 12:03:03;;;;;;;5.65;3.53;;;19.10;72.00;;;;;;5093532;28;20200;-61
2021/04/29 12:05:31;;;;;;;5.97;3.30;;;19.40;72.30;;;;;;5093424;28;20672;-61
2021/04/29 12:07:57;;;;;;;8.13;3.77;;;19.80;71.40;;;;;;5093792;28;20577;-62
2021/04/29 12:10:24;;;;;;;5.30;3.05;;;20.10;69.00;;;;;;5093666;28;20734;-62
2021/04/29 12:12:51;;;;;;;5.07;3.35;;;20.40;68.00;;;;;;5093926;28;20200;-62
2021/04/29 12:15:18;;;;;;;6.97;3.47;;;20.40;66.40;;;;;;5093375;28;20204;-62
2021/04/29 12:17:44;;;;;;;5.75;3.60;;;20.30;67.00;;;;;;5093222;28;20262;-62
2021/04/29 12:20:11;;;;;;;7.05;3.60;;;20.10;68.80;;;;;;5093616;28;20632;-62
2021/04/29 12:22:40;;;;;;;5.22;3.33;;;20.10;67.80;;;;;;5093480;28;20281;-61
2021/04/29 12:25:08;;;;;;;4.20;3.30;;;20.10;67.40;;;;;;5092673;28;20707;-62
2021/04/29 12:27:41;;;;;;;5.38;2.95;;;20.10;67.50;;;;;;5093139;28;20224;-61
2021/04/29 12:30:09;;;;;;;5.20;3.63;;;20.20;68.90;;;;;;5093941;28;20651;-62
2021/04/29 12:32:37;;;;;;;4.57;3.10;;;20.30;69.20;;;;;;5093680;28;20208;-62
2021/04/29 12:35:04;;;;;;;3.50;2.53;;;20.50;68.70;;;;;;5093076;28;20231;-62
2021/04/29 12:37:30;;;;;;;4.95;3.00;;;20.60;66.10;;;;;;5093433;28;20232;-62
2021/04/29 12:39:57;;;;;;;3.53;2.72;;;20.90;66.30;;;;;;5093077;28;20208;-62
2021/04/29 12:42:24;;;;;;;4.35;2.80;;;21.10;64.70;;;;;;5092817;28;20217;-62
2021/04/29 12:44:58;;;;;;;3.47;2.70;;;21.30;64.80;;;;;;5093143;28;20204;-62
2021/04/29 12:47:26;;;;;;;4.63;2.60;;;21.30;64.80;;;;;;5092847;28;20235;-62